createdAt,value
2018-08-16T00:01:06.482Z,0
2018-08-16T00:02:16.068Z,0
2018-08-16T00:03:25.648Z,0
2018-08-16T00:04:35.522Z,0
2018-08-16T00:05:44.827Z,0
2018-08-16T00:06:54.402Z,0
2018-08-16T00:08:03.972Z,0
2018-08-16T00:09:14.086Z,0
2018-08-16T00:10:23.670Z,0
2018-08-16T00:11:33.519Z,0
2018-08-16T00:12:43.370Z,0
2018-08-16T00:13:53.274Z,0
2018-08-16T00:15:03.382Z,0
2018-08-16T00:16:12.965Z,0
2018-08-16T00:17:23.078Z,0
2018-08-16T00:18:32.979Z,0
2018-08-16T00:19:42.553Z,0
2018-08-16T00:20:52.400Z,0
2018-08-16T00:22:01.441Z,0
2018-08-16T00:23:11.016Z,0
2018-08-16T00:24:20.864Z,0
2018-08-16T00:25:30.440Z,0
2018-08-16T00:26:40.283Z,0
2018-08-16T00:27:50.399Z,0
2018-08-16T00:29:00.517Z,0
2018-08-16T00:30:10.095Z,0
2018-08-16T00:31:19.666Z,0
2018-08-16T00:32:29.776Z,0
2018-08-16T00:33:39.891Z,0
2018-08-16T00:34:50.009Z,0
2018-08-16T00:35:59.605Z,0
2018-08-16T00:37:08.904Z,0
2018-08-16T00:38:18.487Z,0
2018-08-16T00:39:27.787Z,0
2018-08-16T00:40:37.631Z,0
2018-08-16T00:41:47.216Z,0
2018-08-16T00:42:56.785Z,0
2018-08-16T00:44:06.356Z,0
2018-08-16T00:45:16.463Z,0
2018-08-16T00:46:26.579Z,0
2018-08-16T00:47:36.157Z,0
2018-08-16T00:48:46.277Z,0
2018-08-16T00:49:56.407Z,0
2018-08-16T00:51:06.031Z,0
2018-08-16T00:52:15.925Z,0
2018-08-16T00:53:25.516Z,0
2018-08-16T00:54:35.089Z,0
2018-08-16T00:55:45.208Z,0
2018-08-16T00:56:55.328Z,0
2018-08-16T00:58:05.211Z,0
2018-08-16T00:59:14.563Z,0
2018-08-16T01:00:23.868Z,0
2018-08-16T01:01:33.718Z,0
2018-08-16T01:02:43.048Z,0
2018-08-16T01:03:52.635Z,0
2018-08-16T01:05:02.211Z,0
2018-08-16T01:06:11.793Z,0
2018-08-16T01:07:21.365Z,0
2018-08-16T01:08:31.209Z,0
2018-08-16T01:09:40.779Z,0
2018-08-16T01:10:50.625Z,0
2018-08-16T01:12:00.203Z,0
2018-08-16T01:13:10.053Z,0
2018-08-16T01:14:19.628Z,0
2018-08-16T01:15:29.199Z,0
2018-08-16T01:16:38.783Z,0
2018-08-16T01:17:48.644Z,0
2018-08-16T01:18:58.256Z,0
2018-08-16T01:20:07.840Z,0
2018-08-16T01:21:17.783Z,0
2018-08-16T01:22:27.412Z,0
2018-08-16T01:23:36.990Z,0
2018-08-16T01:24:46.833Z,0
2018-08-16T01:25:56.679Z,0
2018-08-16T01:27:06.258Z,0
2018-08-16T01:28:15.890Z,0
2018-08-16T01:29:25.462Z,0
2018-08-16T01:30:35.042Z,0
2018-08-16T01:31:44.883Z,0
2018-08-16T01:32:54.472Z,0
2018-08-16T01:34:03.779Z,0
2018-08-16T01:35:13.619Z,0
2018-08-16T01:36:23.733Z,0
2018-08-16T01:37:33.309Z,0
2018-08-16T01:38:43.153Z,0
2018-08-16T01:39:53.270Z,0
2018-08-16T01:41:02.849Z,0
2018-08-16T01:42:12.694Z,0
2018-08-16T01:43:22.550Z,0
2018-08-16T01:44:32.135Z,0
2018-08-16T01:45:41.218Z,0
2018-08-16T01:46:51.059Z,0
2018-08-16T01:48:00.649Z,0
2018-08-16T01:49:10.493Z,0
2018-08-16T01:50:20.068Z,0
2018-08-16T01:51:29.910Z,0
2018-08-16T01:52:39.760Z,0
2018-08-16T01:53:49.076Z,0
2018-08-16T01:54:58.927Z,0
2018-08-16T01:56:08.769Z,0
2018-08-16T01:57:18.883Z,0
2018-08-16T01:58:28.739Z,0
2018-08-16T01:59:38.309Z,0
2018-08-16T02:00:47.881Z,0
2018-08-16T02:01:57.721Z,0
2018-08-16T02:03:07.297Z,0
2018-08-16T02:04:16.875Z,0
2018-08-16T02:05:26.184Z,0
2018-08-16T02:06:36.298Z,0
2018-08-16T02:07:45.870Z,0
2018-08-16T02:08:55.171Z,0
2018-08-16T02:10:04.758Z,0
2018-08-16T02:11:14.876Z,0
2018-08-16T02:12:24.726Z,0
2018-08-16T02:13:34.038Z,0
2018-08-16T02:14:43.603Z,0
2018-08-16T02:15:53.182Z,0
2018-08-16T02:17:03.033Z,0
2018-08-16T02:18:12.337Z,0
2018-08-16T02:19:21.918Z,0
2018-08-16T02:20:31.494Z,0
2018-08-16T02:21:41.069Z,0
2018-08-16T02:22:50.107Z,0
2018-08-16T02:23:59.679Z,0
2018-08-16T02:25:09.261Z,0
2018-08-16T02:26:19.425Z,0
2018-08-16T02:27:28.469Z,0
2018-08-16T02:28:37.504Z,0
2018-08-16T02:29:47.367Z,0
2018-08-16T02:30:56.951Z,0
2018-08-16T02:32:07.155Z,0
2018-08-16T02:33:17.336Z,0
2018-08-16T02:34:27.486Z,0
2018-08-16T02:35:37.607Z,0
2018-08-16T02:36:47.756Z,0
2018-08-16T02:37:57.876Z,0
2018-08-16T02:39:07.458Z,0
2018-08-16T02:40:17.312Z,0
2018-08-16T02:41:26.618Z,0
2018-08-16T02:42:35.930Z,0
2018-08-16T02:43:45.509Z,0
2018-08-16T02:44:55.130Z,0
2018-08-16T02:46:04.703Z,0
2018-08-16T02:47:14.549Z,0
2018-08-16T02:48:24.121Z,0
2018-08-16T02:49:33.154Z,0
2018-08-16T02:50:43.031Z,0
2018-08-16T02:51:52.876Z,0
2018-08-16T02:53:02.183Z,0
2018-08-16T02:54:11.799Z,0
2018-08-16T02:55:21.690Z,0
2018-08-16T02:56:31.536Z,0
2018-08-16T02:57:41.136Z,0
2018-08-16T02:58:51.069Z,0
2018-08-16T03:00:00.924Z,0
2018-08-16T03:01:10.765Z,0
2018-08-16T03:02:20.906Z,0
2018-08-16T03:03:31.067Z,0
2018-08-16T03:04:40.376Z,0
2018-08-16T03:05:50.497Z,0
2018-08-16T03:07:00.083Z,0
2018-08-16T03:08:09.935Z,0
2018-08-16T03:09:19.240Z,0
2018-08-16T03:10:29.101Z,0
2018-08-16T03:11:39.228Z,0
2018-08-16T03:12:49.075Z,0
2018-08-16T03:13:59.191Z,0
2018-08-16T03:15:08.775Z,0
2018-08-16T03:16:18.884Z,0
2018-08-16T03:17:28.190Z,0
2018-08-16T03:18:38.035Z,0
2018-08-16T03:19:47.607Z,0
2018-08-16T03:20:57.185Z,0
2018-08-16T03:22:07.299Z,0
2018-08-16T03:23:17.144Z,0
2018-08-16T03:24:26.765Z,0
2018-08-16T03:25:36.609Z,0
2018-08-16T03:26:46.184Z,0
2018-08-16T03:27:56.299Z,0
2018-08-16T03:29:05.874Z,0
2018-08-16T03:30:15.443Z,0
2018-08-16T03:31:25.301Z,0
2018-08-16T03:32:35.146Z,0
2018-08-16T03:33:44.719Z,0
2018-08-16T03:34:54.555Z,0
2018-08-16T03:36:04.130Z,0
2018-08-16T03:37:13.982Z,0
2018-08-16T03:38:24.097Z,0
2018-08-16T03:39:33.402Z,0
2018-08-16T03:40:43.252Z,0
2018-08-16T03:41:52.879Z,0
2018-08-16T03:43:02.747Z,0
2018-08-16T03:44:12.323Z,0
2018-08-16T03:45:21.896Z,0
2018-08-16T03:46:31.739Z,0
2018-08-16T03:47:41.898Z,0
2018-08-16T03:48:51.743Z,0
2018-08-16T03:50:01.856Z,0
2018-08-16T03:51:11.429Z,0
2018-08-16T03:52:21.541Z,0
2018-08-16T03:53:31.430Z,0
2018-08-16T03:54:41.543Z,0
2018-08-16T03:55:51.121Z,0
2018-08-16T03:57:00.429Z,0
2018-08-16T03:58:10.539Z,0
2018-08-16T03:59:20.381Z,0
2018-08-16T04:00:30.228Z,0
2018-08-16T04:01:40.070Z,0
2018-08-16T04:02:49.924Z,0
2018-08-16T04:03:59.823Z,5
2018-08-16T04:05:09.447Z,5
2018-08-16T04:06:18.747Z,5
2018-08-16T04:07:28.595Z,5
2018-08-16T04:08:38.168Z,5
2018-08-16T04:09:47.746Z,5
2018-08-16T04:10:57.411Z,10
2018-08-16T04:12:06.723Z,10
2018-08-16T04:13:16.296Z,10
2018-08-16T04:14:25.867Z,10
2018-08-16T04:15:35.169Z,10
2018-08-16T04:16:45.282Z,10
2018-08-16T04:17:54.859Z,15
2018-08-16T04:19:04.442Z,15
2018-08-16T04:20:13.749Z,15
2018-08-16T04:21:23.329Z,15
2018-08-16T04:22:32.910Z,20
2018-08-16T04:23:42.742Z,20
2018-08-16T04:24:52.666Z,20
2018-08-16T04:26:02.245Z,20
2018-08-16T04:27:12.087Z,25
2018-08-16T04:28:21.664Z,25
2018-08-16T04:29:31.510Z,25
2018-08-16T04:30:41.352Z,30
2018-08-16T04:31:50.929Z,30
2018-08-16T04:33:01.045Z,30
2018-08-16T04:34:10.616Z,35
2018-08-16T04:35:20.963Z,35
2018-08-16T04:36:31.092Z,35
2018-08-16T04:37:40.935Z,35
2018-08-16T04:38:50.781Z,40
2018-08-16T04:40:00.942Z,40
2018-08-16T04:41:10.785Z,40
2018-08-16T04:42:20.357Z,45
2018-08-16T04:43:30.472Z,45
2018-08-16T04:44:40.321Z,45
2018-08-16T04:45:49.628Z,50
2018-08-16T04:46:59.195Z,50
2018-08-16T04:48:09.057Z,50
2018-08-16T04:49:18.631Z,55
2018-08-16T04:50:28.473Z,55
2018-08-16T04:51:38.378Z,55
2018-08-16T04:52:48.225Z,60
2018-08-16T04:53:57.796Z,60
2018-08-16T04:55:07.103Z,65
2018-08-16T04:56:16.950Z,65
2018-08-16T04:57:26.799Z,65
2018-08-16T04:58:36.642Z,70
2018-08-16T04:59:46.504Z,70
2018-08-16T05:00:56.080Z,70
2018-08-16T05:02:05.928Z,70
2018-08-16T05:03:15.228Z,75
2018-08-16T05:04:24.804Z,75
2018-08-16T05:05:34.652Z,75
2018-08-16T05:06:43.685Z,75
2018-08-16T05:07:53.524Z,75
2018-08-16T05:09:03.092Z,80
2018-08-16T05:10:12.682Z,80
2018-08-16T05:11:22.948Z,80
2018-08-16T05:12:32.797Z,85
2018-08-16T05:13:42.374Z,85
2018-08-16T05:14:51.404Z,85
2018-08-16T05:16:01.509Z,90
2018-08-16T05:17:11.705Z,90
2018-08-16T05:18:21.551Z,95
2018-08-16T05:19:31.129Z,95
2018-08-16T05:20:40.980Z,95
2018-08-16T05:21:50.555Z,100
2018-08-16T05:23:00.134Z,100
2018-08-16T05:24:10.128Z,105
2018-08-16T05:25:20.240Z,105
2018-08-16T05:26:30.082Z,110
2018-08-16T05:27:39.649Z,110
2018-08-16T05:28:49.222Z,110
2018-08-16T05:29:58.801Z,110
2018-08-16T05:31:08.375Z,115
2018-08-16T05:32:18.277Z,115
2018-08-16T05:33:28.122Z,115
2018-08-16T05:34:37.711Z,115
2018-08-16T05:35:47.829Z,120
2018-08-16T05:36:57.673Z,120
2018-08-16T05:38:07.260Z,115
2018-08-16T05:39:17.118Z,120
2018-08-16T05:40:26.699Z,120
2018-08-16T05:41:36.282Z,120
2018-08-16T05:42:46.129Z,120
2018-08-16T05:43:55.776Z,125
2018-08-16T05:45:05.353Z,125
2018-08-16T05:46:14.941Z,125
2018-08-16T05:47:24.794Z,125
2018-08-16T05:48:34.642Z,125
2018-08-16T05:49:44.500Z,125
2018-08-16T05:50:54.854Z,130
2018-08-16T05:52:04.519Z,130
2018-08-16T05:53:14.095Z,135
2018-08-16T05:54:23.671Z,130
2018-08-16T05:55:32.981Z,130
2018-08-16T05:56:43.101Z,130
2018-08-16T05:57:52.674Z,135
2018-08-16T05:59:02.798Z,130
2018-08-16T06:00:12.104Z,135
2018-08-16T06:01:21.143Z,135
2018-08-16T06:02:30.455Z,130
2018-08-16T06:03:40.296Z,135
2018-08-16T06:04:49.870Z,135
2018-08-16T06:06:00.024Z,135
2018-08-16T06:07:10.149Z,140
2018-08-16T06:08:19.731Z,140
2018-08-16T06:09:29.575Z,140
2018-08-16T06:10:38.885Z,145
2018-08-16T06:11:48.464Z,145
2018-08-16T06:12:58.053Z,145
2018-08-16T06:14:08.206Z,145
2018-08-16T06:15:18.345Z,145
2018-08-16T06:16:28.507Z,150
2018-08-16T06:17:38.620Z,150
2018-08-16T06:18:47.974Z,155
2018-08-16T06:19:57.277Z,150
2018-08-16T06:21:06.587Z,150
2018-08-16T06:22:16.444Z,150
2018-08-16T06:23:26.283Z,155
2018-08-16T06:24:35.639Z,155
2018-08-16T06:25:45.514Z,155
2018-08-16T06:26:54.819Z,155
2018-08-16T06:28:04.129Z,155
2018-08-16T06:29:13.972Z,155
2018-08-16T06:30:23.815Z,160
2018-08-16T06:31:33.756Z,160
2018-08-16T06:32:43.001Z,160
2018-08-16T06:33:52.859Z,160
2018-08-16T06:35:02.170Z,160
2018-08-16T06:36:11.525Z,160
2018-08-16T06:37:21.100Z,160
2018-08-16T06:38:30.412Z,160
2018-08-16T06:39:40.536Z,160
2018-08-16T06:40:50.385Z,160
2018-08-16T06:41:59.956Z,165
2018-08-16T06:43:09.798Z,165
2018-08-16T06:44:19.920Z,165
2018-08-16T06:45:29.496Z,165
2018-08-16T06:46:39.637Z,165
2018-08-16T06:47:49.505Z,165
2018-08-16T06:48:59.613Z,165
2018-08-16T06:50:09.459Z,170
2018-08-16T06:51:18.762Z,170
2018-08-16T06:52:27.840Z,170
2018-08-16T06:53:37.714Z,170
2018-08-16T06:54:47.554Z,170
2018-08-16T06:55:56.585Z,170
2018-08-16T06:57:06.440Z,175
2018-08-16T06:58:16.369Z,175
2018-08-16T06:59:26.499Z,175
2018-08-16T07:00:36.078Z,175
2018-08-16T07:01:45.916Z,175
2018-08-16T07:02:55.490Z,175
2018-08-16T07:04:05.602Z,175
2018-08-16T07:05:14.973Z,175
2018-08-16T07:06:24.549Z,175
2018-08-16T07:07:33.589Z,175
2018-08-16T07:08:42.900Z,175
2018-08-16T07:09:52.480Z,175
2018-08-16T07:11:02.053Z,175
2018-08-16T07:12:11.752Z,175
2018-08-16T07:13:21.187Z,180
2018-08-16T07:14:30.779Z,180
2018-08-16T07:15:40.894Z,180
2018-08-16T07:16:50.743Z,185
2018-08-16T07:18:00.041Z,180
2018-08-16T07:19:09.901Z,185
2018-08-16T07:20:18.938Z,185
2018-08-16T07:21:28.242Z,185
2018-08-16T07:22:38.137Z,185
2018-08-16T07:23:47.709Z,185
2018-08-16T07:24:57.302Z,185
2018-08-16T07:26:06.620Z,185
2018-08-16T07:27:16.465Z,185
2018-08-16T07:28:26.042Z,185
2018-08-16T07:29:35.614Z,185
2018-08-16T07:30:45.189Z,185
2018-08-16T07:31:55.036Z,185
2018-08-16T07:33:05.148Z,190
2018-08-16T07:34:14.992Z,190
2018-08-16T07:35:24.297Z,190
2018-08-16T07:36:34.422Z,190
2018-08-16T07:37:43.730Z,190
2018-08-16T07:38:53.570Z,190
2018-08-16T07:40:03.141Z,190
2018-08-16T07:41:13.614Z,190
2018-08-16T07:42:23.465Z,195
2018-08-16T07:43:33.312Z,195
2018-08-16T07:44:43.159Z,195
2018-08-16T07:45:54.242Z,195
2018-08-16T07:47:03.912Z,195
2018-08-16T07:48:12.952Z,195
2018-08-16T07:49:23.074Z,200
2018-08-16T07:50:32.696Z,200
2018-08-16T07:51:43.544Z,200
2018-08-16T07:52:53.602Z,200
2018-08-16T07:54:03.458Z,205
2018-08-16T07:55:13.037Z,205
2018-08-16T07:56:22.609Z,205
2018-08-16T07:57:32.461Z,210
2018-08-16T07:58:42.855Z,210
2018-08-16T07:59:52.437Z,215
2018-08-16T08:01:02.565Z,215
2018-08-16T08:02:12.415Z,220
2018-08-16T08:03:22.271Z,225
2018-08-16T08:04:31.842Z,245
2018-08-16T08:05:41.688Z,235
2018-08-16T08:06:51.532Z,230
2018-08-16T08:08:00.841Z,230
2018-08-16T08:09:12.217Z,220
2018-08-16T08:10:22.189Z,240
2018-08-16T08:11:31.497Z,240
2018-08-16T08:12:41.079Z,230
2018-08-16T08:13:50.918Z,235
2018-08-16T08:15:00.220Z,235
2018-08-16T08:16:10.070Z,240
2018-08-16T08:17:19.377Z,230
2018-08-16T08:18:28.688Z,220
2018-08-16T08:19:37.997Z,215
2018-08-16T08:20:47.627Z,215
2018-08-16T08:21:57.200Z,220
2018-08-16T08:23:07.042Z,230
2018-08-16T08:24:16.620Z,230
2018-08-16T08:25:26.957Z,235
2018-08-16T08:26:36.769Z,240
2018-08-16T08:27:46.888Z,245
2018-08-16T08:28:55.924Z,230
2018-08-16T08:30:05.774Z,220
2018-08-16T08:31:15.345Z,210
2018-08-16T08:32:25.197Z,210
2018-08-16T08:33:35.316Z,220
2018-08-16T08:34:45.156Z,245
2018-08-16T08:35:54.741Z,220
2018-08-16T08:37:04.048Z,240
2018-08-16T08:38:13.675Z,245
2018-08-16T08:39:23.522Z,245
2018-08-16T08:40:33.646Z,260
2018-08-16T08:41:43.496Z,280
2018-08-16T08:42:53.074Z,265
2018-08-16T08:44:02.646Z,300
2018-08-16T08:45:12.493Z,300
2018-08-16T08:46:21.802Z,290
2018-08-16T08:47:31.645Z,320
2018-08-16T08:48:41.770Z,370
2018-08-16T08:49:51.661Z,375
2018-08-16T08:51:01.781Z,365
2018-08-16T08:52:11.091Z,385
2018-08-16T08:53:20.937Z,370
2018-08-16T08:54:31.054Z,365
2018-08-16T08:55:40.896Z,345
2018-08-16T08:56:49.927Z,350
2018-08-16T08:57:59.553Z,355
2018-08-16T08:59:08.884Z,355
2018-08-16T09:00:18.732Z,340
2018-08-16T09:01:28.857Z,335
2018-08-16T09:02:38.168Z,320
2018-08-16T09:03:48.290Z,310
2018-08-16T09:04:58.421Z,345
2018-08-16T09:06:08.269Z,355
2018-08-16T09:07:17.901Z,315
2018-08-16T09:08:27.749Z,290
2018-08-16T09:09:37.610Z,290
2018-08-16T09:10:47.459Z,325
2018-08-16T09:11:56.498Z,295
2018-08-16T09:13:06.074Z,315
2018-08-16T09:14:15.936Z,340
2018-08-16T09:15:25.233Z,335
2018-08-16T09:16:35.359Z,375
2018-08-16T09:17:45.206Z,445
2018-08-16T09:18:54.786Z,450
2018-08-16T09:20:04.365Z,410
2018-08-16T09:21:14.232Z,360
2018-08-16T09:22:23.548Z,360
2018-08-16T09:23:33.395Z,320
2018-08-16T09:24:43.516Z,355
2018-08-16T09:25:53.364Z,470
2018-08-16T09:27:03.213Z,515
2018-08-16T09:28:12.525Z,545
2018-08-16T09:29:22.374Z,515
2018-08-16T09:30:32.277Z,450
2018-08-16T09:31:42.874Z,440
2018-08-16T09:32:52.809Z,410
2018-08-16T09:34:02.928Z,385
2018-08-16T09:35:12.775Z,355
2018-08-16T09:36:21.812Z,340
2018-08-16T09:37:31.656Z,355
2018-08-16T09:38:41.514Z,355
2018-08-16T09:39:52.075Z,385
2018-08-16T09:41:01.996Z,405
2018-08-16T09:42:11.303Z,390
2018-08-16T09:43:20.882Z,360
2018-08-16T09:44:30.482Z,385
2018-08-16T09:45:40.478Z,360
2018-08-16T09:46:50.434Z,340
2018-08-16T09:48:00.382Z,345
2018-08-16T09:49:10.506Z,370
2018-08-16T09:50:20.353Z,355
2018-08-16T09:51:30.536Z,335
2018-08-16T09:52:39.793Z,365
2018-08-16T09:53:49.420Z,370
2018-08-16T09:54:59.271Z,425
2018-08-16T09:56:08.846Z,435
2018-08-16T09:57:18.769Z,445
2018-08-16T09:58:28.616Z,450
2018-08-16T09:59:38.793Z,415
2018-08-16T10:00:48.920Z,425
2018-08-16T10:01:58.779Z,445
2018-08-16T10:03:08.417Z,425
2018-08-16T10:04:18.539Z,385
2018-08-16T10:05:28.389Z,360
2018-08-16T10:06:38.243Z,400
2018-08-16T10:07:48.367Z,395
2018-08-16T10:08:58.493Z,385
2018-08-16T10:10:08.073Z,390
2018-08-16T10:11:17.386Z,405
2018-08-16T10:12:26.970Z,400
2018-08-16T10:13:36.835Z,400
2018-08-16T10:14:47.040Z,420
2018-08-16T10:15:56.887Z,375
2018-08-16T10:17:06.480Z,380
2018-08-16T10:18:16.331Z,400
2018-08-16T10:19:26.478Z,415
2018-08-16T10:20:36.056Z,430
2018-08-16T10:21:45.911Z,460
2018-08-16T10:22:56.034Z,470
2018-08-16T10:24:05.892Z,465
2018-08-16T10:25:15.746Z,495
2018-08-16T10:26:25.323Z,520
2018-08-16T10:27:35.174Z,535
2018-08-16T10:28:44.217Z,500
2018-08-16T10:29:53.527Z,460
2018-08-16T10:31:03.104Z,405
2018-08-16T10:32:12.685Z,350
2018-08-16T10:33:22.270Z,340
2018-08-16T10:34:32.115Z,390
2018-08-16T10:35:41.700Z,430
2018-08-16T10:36:51.825Z,390
2018-08-16T10:38:01.679Z,390
2018-08-16T10:39:11.260Z,410
2018-08-16T10:40:21.158Z,435
2018-08-16T10:41:30.748Z,440
2018-08-16T10:42:40.596Z,460
2018-08-16T10:43:49.645Z,505
2018-08-16T10:44:59.504Z,570
2018-08-16T10:46:09.081Z,555
2018-08-16T10:47:18.938Z,500
2018-08-16T10:48:28.520Z,465
2018-08-16T10:49:38.371Z,440
2018-08-16T10:50:48.220Z,465
2018-08-16T10:51:57.804Z,475
2018-08-16T10:53:07.924Z,455
2018-08-16T10:54:18.046Z,515
2018-08-16T10:55:28.163Z,530
2018-08-16T10:56:38.275Z,540
2018-08-16T10:57:47.591Z,580
2018-08-16T10:58:57.442Z,590
2018-08-16T11:00:06.829Z,555
2018-08-16T11:01:17.114Z,500
2018-08-16T11:02:26.711Z,505
2018-08-16T11:03:36.848Z,515
2018-08-16T11:04:46.705Z,505
2018-08-16T11:05:56.897Z,535
2018-08-16T11:07:07.014Z,590
2018-08-16T11:08:16.878Z,575
2018-08-16T11:09:26.729Z,540
2018-08-16T11:10:36.309Z,510
2018-08-16T11:11:46.213Z,490
2018-08-16T11:12:55.528Z,485
2018-08-16T11:14:05.155Z,490
2018-08-16T11:15:15.002Z,485
2018-08-16T11:16:24.582Z,510
2018-08-16T11:17:34.161Z,500
2018-08-16T11:18:43.774Z,530
2018-08-16T11:19:53.906Z,580
2018-08-16T11:21:03.762Z,575
2018-08-16T11:22:13.342Z,570
2018-08-16T11:23:22.928Z,550
2018-08-16T11:24:32.786Z,515
2018-08-16T11:25:42.097Z,510
2018-08-16T11:26:51.940Z,495
2018-08-16T11:28:01.796Z,480
2018-08-16T11:29:11.657Z,455
2018-08-16T11:30:21.557Z,445
2018-08-16T11:31:31.138Z,470
2018-08-16T11:32:40.714Z,510
2018-08-16T11:33:50.565Z,555
2018-08-16T11:34:59.661Z,530
2018-08-16T11:36:08.947Z,550
2018-08-16T11:37:19.069Z,530
2018-08-16T11:38:28.650Z,475
2018-08-16T11:39:38.236Z,455
2018-08-16T11:40:47.915Z,460
2018-08-16T11:41:57.598Z,475
2018-08-16T11:43:07.447Z,490
2018-08-16T11:44:17.296Z,490
2018-08-16T11:45:27.155Z,515
2018-08-16T11:46:37.058Z,540
2018-08-16T11:47:46.599Z,535
2018-08-16T11:48:56.183Z,520
2018-08-16T11:50:05.490Z,515
2018-08-16T11:51:15.343Z,530
2018-08-16T11:52:25.194Z,520
2018-08-16T11:53:35.326Z,585
2018-08-16T11:54:45.484Z,605
2018-08-16T11:55:55.064Z,620
2018-08-16T11:57:04.644Z,640
2018-08-16T11:58:14.495Z,685
2018-08-16T11:59:24.362Z,1325
2018-08-16T12:00:33.673Z,1770
2018-08-16T12:01:43.529Z,1855
2018-08-16T12:02:53.394Z,1830
2018-08-16T12:04:02.978Z,605
2018-08-16T12:05:12.830Z,1750
2018-08-16T12:06:23.023Z,2055
2018-08-16T12:07:33.227Z,1995
2018-08-16T12:08:42.815Z,1885
2018-08-16T12:09:52.130Z,2060
2018-08-16T12:11:01.450Z,1905
2018-08-16T12:12:11.602Z,1870
2018-08-16T12:13:21.739Z,1665
2018-08-16T12:14:31.633Z,1120
2018-08-16T12:15:41.486Z,875
2018-08-16T12:16:51.067Z,745
2018-08-16T12:18:00.654Z,840
2018-08-16T12:19:10.504Z,1025
2018-08-16T12:20:19.822Z,1195
2018-08-16T12:21:29.946Z,1215
2018-08-16T12:22:39.521Z,1180
2018-08-16T12:23:49.383Z,1350
2018-08-16T12:24:59.232Z,660
2018-08-16T12:26:08.828Z,1550
2018-08-16T12:27:18.416Z,1925
2018-08-16T12:28:28.267Z,2000
2018-08-16T12:29:38.386Z,2110
2018-08-16T12:30:48.245Z,1765
2018-08-16T12:31:58.107Z,1055
2018-08-16T12:33:07.973Z,825
2018-08-16T12:34:17.830Z,840
2018-08-16T12:35:27.417Z,935
2018-08-16T12:36:37.073Z,1090
2018-08-16T12:37:47.221Z,830
2018-08-16T12:38:57.139Z,755
2018-08-16T12:40:07.273Z,915
2018-08-16T12:41:18.147Z,1185
2018-08-16T12:42:28.683Z,1345
2018-08-16T12:43:38.540Z,1730
2018-08-16T12:44:48.664Z,1610
2018-08-16T12:45:58.795Z,1290
2018-08-16T12:47:08.935Z,1500
2018-08-16T12:48:18.525Z,1415
2018-08-16T12:49:27.837Z,1665
2018-08-16T12:50:37.964Z,1815
2018-08-16T12:51:47.826Z,1990
2018-08-16T12:52:57.680Z,2050
2018-08-16T12:54:07.274Z,1765
2018-08-16T12:55:17.137Z,1475
2018-08-16T12:56:27.002Z,970
2018-08-16T12:57:36.641Z,905
2018-08-16T12:58:46.232Z,940
2018-08-16T12:59:56.084Z,990
2018-08-16T13:01:05.413Z,1085
2018-08-16T13:02:15.568Z,1230
2018-08-16T13:03:25.160Z,1545
2018-08-16T13:04:35.292Z,2030
2018-08-16T13:05:44.881Z,1480
2018-08-16T13:06:54.740Z,1325
2018-08-16T13:08:04.064Z,760
2018-08-16T13:09:14.196Z,790
2018-08-16T13:10:24.051Z,730
2018-08-16T13:11:33.364Z,795
2018-08-16T13:12:43.224Z,695
2018-08-16T13:13:52.820Z,695
2018-08-16T13:15:02.340Z,845
2018-08-16T13:16:12.220Z,1295
2018-08-16T13:17:22.069Z,1605
2018-08-16T13:18:32.202Z,1005
2018-08-16T13:19:42.323Z,840
2018-08-16T13:20:51.634Z,870
2018-08-16T13:22:01.499Z,1095
2018-08-16T13:23:10.814Z,1640
2018-08-16T13:24:20.133Z,2495
2018-08-16T13:25:29.715Z,2645
2018-08-16T13:26:39.582Z,2420
2018-08-16T13:27:49.325Z,2505
2018-08-16T13:28:59.455Z,2635
2018-08-16T13:30:09.160Z,2445
2018-08-16T13:31:19.346Z,2595
2018-08-16T13:32:29.311Z,2340
2018-08-16T13:33:38.630Z,2585
2018-08-16T13:34:48.216Z,1400
2018-08-16T13:35:57.807Z,1045
2018-08-16T13:37:08.170Z,1505
2018-08-16T13:38:17.813Z,1210
2018-08-16T13:39:27.672Z,1070
2018-08-16T13:40:37.262Z,1000
2018-08-16T13:41:46.580Z,1035
2018-08-16T13:42:55.900Z,930
2018-08-16T13:44:05.486Z,925
2018-08-16T13:45:15.075Z,1160
2018-08-16T13:46:25.196Z,1435
2018-08-16T13:47:35.321Z,1725
2018-08-16T13:48:45.747Z,2570
2018-08-16T13:49:55.886Z,2480
2018-08-16T13:51:06.022Z,2370
2018-08-16T13:52:15.882Z,2345
2018-08-16T13:53:25.760Z,2090
2018-08-16T13:54:35.626Z,2510
2018-08-16T13:55:45.216Z,1055
2018-08-16T13:56:55.069Z,2570
2018-08-16T13:58:04.987Z,2465
2018-08-16T13:59:14.839Z,2205
2018-08-16T14:00:24.430Z,2095
2018-08-16T14:01:34.577Z,1895
2018-08-16T14:02:44.434Z,1100
2018-08-16T14:03:53.758Z,1045
2018-08-16T14:05:03.881Z,1305
2018-08-16T14:06:13.746Z,1660
2018-08-16T14:07:23.332Z,1670
2018-08-16T14:08:33.189Z,1430
2018-08-16T14:09:42.787Z,1465
2018-08-16T14:10:52.641Z,1520
2018-08-16T14:12:02.236Z,1690
2018-08-16T14:13:12.137Z,1755
2018-08-16T14:14:21.999Z,1445
2018-08-16T14:15:31.638Z,1555
2018-08-16T14:16:41.500Z,1770
2018-08-16T14:17:51.357Z,1665
2018-08-16T14:19:00.675Z,2100
2018-08-16T14:20:10.260Z,2370
2018-08-16T14:21:20.387Z,2280
2018-08-16T14:22:29.703Z,2260
2018-08-16T14:23:39.570Z,1530
2018-08-16T14:24:49.428Z,2075
2018-08-16T14:25:59.536Z,2880
2018-08-16T14:27:08.577Z,2870
2018-08-16T14:28:18.177Z,3120
2018-08-16T14:29:27.499Z,3065
2018-08-16T14:30:37.639Z,2790
2018-08-16T14:31:47.786Z,3015
2018-08-16T14:32:57.373Z,2870
2018-08-16T14:34:07.255Z,3000
2018-08-16T14:35:16.845Z,3310
2018-08-16T14:36:26.446Z,3515
2018-08-16T14:37:36.310Z,3495
2018-08-16T14:38:46.450Z,3540
2018-08-16T14:39:56.037Z,3215
2018-08-16T14:41:05.630Z,3130
2018-08-16T14:42:14.959Z,3200
2018-08-16T14:43:25.084Z,3075
2018-08-16T14:44:34.405Z,3105
2018-08-16T14:45:44.268Z,2960
2018-08-16T14:46:53.593Z,2630
2018-08-16T14:48:03.182Z,2790
2018-08-16T14:49:13.325Z,2785
2018-08-16T14:50:22.928Z,2890
2018-08-16T14:51:32.757Z,2360
2018-08-16T14:52:42.620Z,1990
2018-08-16T14:53:52.211Z,2840
2018-08-16T14:55:01.806Z,2740
2018-08-16T14:56:11.408Z,2925
2018-08-16T14:57:20.736Z,3420
2018-08-16T14:58:30.606Z,2955
2018-08-16T14:59:39.929Z,2930
2018-08-16T15:00:49.874Z,2985
2018-08-16T15:01:59.475Z,2945
2018-08-16T15:03:09.070Z,2800
2018-08-16T15:04:18.669Z,2885
2018-08-16T15:05:28.538Z,2820
2018-08-16T15:06:37.870Z,2735
2018-08-16T15:07:47.475Z,2375
2018-08-16T15:08:57.076Z,2650
2018-08-16T15:10:07.219Z,2740
2018-08-16T15:11:17.108Z,2635
2018-08-16T15:12:26.985Z,2355
2018-08-16T15:13:36.851Z,2220
2018-08-16T15:14:46.729Z,2455
2018-08-16T15:15:56.331Z,2035
2018-08-16T15:17:06.207Z,1555
2018-08-16T15:18:15.543Z,1975
2018-08-16T15:19:24.877Z,2170
2018-08-16T15:20:34.745Z,2390
2018-08-16T15:21:44.617Z,2635
2018-08-16T15:22:55.037Z,2850
2018-08-16T15:24:04.980Z,2980
2018-08-16T15:25:14.853Z,2830
2018-08-16T15:26:24.183Z,2885
2018-08-16T15:27:34.097Z,2865
2018-08-16T15:28:43.969Z,2740
2018-08-16T15:29:53.564Z,2690
2018-08-16T15:31:03.443Z,2700
2018-08-16T15:32:13.513Z,2685
2018-08-16T15:33:23.176Z,2740
2018-08-16T15:34:32.770Z,2570
2018-08-16T15:35:42.380Z,2515
2018-08-16T15:36:52.241Z,2525
2018-08-16T15:38:02.153Z,2655
2018-08-16T15:39:11.473Z,2710
2018-08-16T15:40:20.528Z,2615
2018-08-16T15:41:30.142Z,2470
2018-08-16T15:42:39.468Z,2470
2018-08-16T15:43:49.331Z,2645
2018-08-16T15:44:58.651Z,2630
2018-08-16T15:46:08.251Z,2690
2018-08-16T15:47:18.379Z,2700
2018-08-16T15:48:28.522Z,2670
2018-08-16T15:49:38.399Z,2630
2018-08-16T15:50:47.997Z,2650
2018-08-16T15:51:57.865Z,2580
2018-08-16T15:53:07.469Z,2460
2018-08-16T15:54:17.615Z,2625
2018-08-16T15:55:27.486Z,2410
2018-08-16T15:56:37.351Z,2125
2018-08-16T15:57:46.948Z,1685
2018-08-16T15:58:57.081Z,2390
2018-08-16T16:00:06.954Z,2325
2018-08-16T16:01:16.549Z,2385
2018-08-16T16:02:26.199Z,2185
2018-08-16T16:03:36.329Z,2090
2018-08-16T16:04:46.187Z,1945
2018-08-16T16:05:57.247Z,2020
2018-08-16T16:07:07.136Z,1935
2018-08-16T16:08:16.191Z,1820
2018-08-16T16:09:26.059Z,1890
2018-08-16T16:10:35.921Z,1720
2018-08-16T16:11:45.785Z,1890
2018-08-16T16:12:55.106Z,2005